createdAt,value
2019-03-15T00:04:08.856Z,99
2019-03-15T00:09:37.396Z,99
2019-03-15T00:15:05.776Z,99
2019-03-15T00:20:33.345Z,99
2019-03-15T00:26:00.691Z,99
2019-03-15T00:31:28.167Z,98
2019-03-15T00:36:56.678Z,98
2019-03-15T00:42:24.080Z,97
2019-03-15T00:47:51.646Z,97
2019-03-15T00:53:19.075Z,97
2019-03-15T00:58:46.578Z,96
2019-03-15T01:04:15.061Z,95
2019-03-15T01:09:43.506Z,94
2019-03-15T01:15:10.934Z,94
2019-03-15T01:20:38.466Z,93
2019-03-15T01:26:06.833Z,94
2019-03-15T01:31:34.297Z,94
2019-03-15T01:37:02.208Z,93
2019-03-15T01:42:29.197Z,93
2019-03-15T01:47:56.813Z,93
2019-03-15T01:53:25.088Z,94
2019-03-15T01:58:52.546Z,95
2019-03-15T02:04:21.016Z,95
2019-03-15T02:09:48.539Z,95
2019-03-15T02:15:15.951Z,95
2019-03-15T02:20:43.413Z,95
2019-03-15T02:26:10.877Z,94
2019-03-15T02:31:39.364Z,94
2019-03-15T02:37:07.996Z,94
2019-03-15T02:42:35.317Z,93
2019-03-15T02:48:03.947Z,93
2019-03-15T02:53:31.329Z,91
2019-03-15T02:58:58.728Z,91
2019-03-15T03:04:26.220Z,91
2019-03-15T03:09:54.698Z,90
2019-03-15T03:15:23.158Z,90
2019-03-15T03:20:51.636Z,89
2019-03-15T03:26:19.058Z,90
2019-03-15T03:31:47.522Z,91
2019-03-15T03:37:15.131Z,91
2019-03-15T03:42:42.515Z,92
2019-03-15T03:48:10.970Z,92
2019-03-15T03:53:39.331Z,93
2019-03-15T03:59:07.830Z,93
2019-03-15T04:04:36.251Z,93
2019-03-15T04:10:05.626Z,94
2019-03-15T04:15:32.145Z,94
2019-03-15T04:21:00.534Z,95
2019-03-15T04:26:27.914Z,95
2019-03-15T04:31:55.343Z,96
2019-03-15T04:37:23.822Z,97
2019-03-15T04:42:52.363Z,97
2019-03-15T04:48:19.720Z,97
2019-03-15T04:53:47.330Z,97
2019-03-15T04:59:14.620Z,97
2019-03-15T05:04:42.072Z,97
2019-03-15T05:10:09.590Z,97
2019-03-15T05:15:36.992Z,97
2019-03-15T05:21:05.437Z,97
2019-03-15T05:26:32.865Z,97
2019-03-15T05:32:00.447Z,97
2019-03-15T05:37:28.814Z,97
2019-03-15T05:42:57.253Z,97
2019-03-15T05:48:24.714Z,97
2019-03-15T05:53:53.218Z,97
2019-03-15T06:15:44.020Z,97
2019-03-15T06:21:11.491Z,98
2019-03-15T06:26:39.016Z,98
2019-03-15T06:32:07.604Z,98
2019-03-15T06:37:34.888Z,98
2019-03-15T06:43:02.386Z,99
2019-03-15T06:48:30.837Z,99
2019-03-15T06:54:10.490Z,98
2019-03-15T06:59:25.831Z,98
2019-03-15T07:04:54.467Z,98
2019-03-15T07:10:22.877Z,98
2019-03-15T07:15:50.451Z,98
2019-03-15T07:21:18.910Z,98
2019-03-15T07:26:46.493Z,98
2019-03-15T07:32:13.948Z,98
2019-03-15T07:37:45.226Z,98
2019-03-15T07:43:10.974Z,98
2019-03-15T07:48:38.524Z,98
2019-03-15T07:54:06.064Z,98
2019-03-15T07:59:34.617Z,97
2019-03-15T08:05:02.138Z,97
2019-03-15T08:10:29.699Z,97
2019-03-15T08:15:58.257Z,97
2019-03-15T08:21:25.872Z,97
2019-03-15T08:26:54.343Z,97
2019-03-15T08:32:21.900Z,96
2019-03-15T08:37:49.527Z,96
2019-03-15T08:43:17.076Z,96
2019-03-15T08:48:44.727Z,95
2019-03-15T08:54:13.221Z,94
2019-03-15T08:59:52.713Z,94
2019-03-15T09:05:08.449Z,94
2019-03-15T09:10:36.999Z,93
2019-03-15T09:16:04.634Z,94
2019-03-15T09:21:32.233Z,94
2019-03-15T09:27:00.944Z,94
2019-03-15T09:32:28.607Z,94
2019-03-15T09:37:57.051Z,95
2019-03-15T09:43:24.654Z,96
2019-03-15T09:48:52.243Z,96
2019-03-15T09:54:19.836Z,97
2019-03-15T09:59:48.405Z,97
2019-03-15T10:05:16.009Z,97
2019-03-15T10:10:43.604Z,97
2019-03-15T10:16:12.239Z,97
2019-03-15T10:21:39.791Z,97
2019-03-15T10:27:07.363Z,97
2019-03-15T10:32:34.902Z,97
2019-03-15T10:38:03.545Z,97
2019-03-15T10:43:32.048Z,97
2019-03-15T10:49:00.613Z,97
2019-03-15T10:54:29.131Z,97
2019-03-15T10:59:56.700Z,97
2019-03-15T11:05:24.284Z,97
2019-03-15T11:10:52.764Z,97
2019-03-15T11:16:20.342Z,97
2019-03-15T11:21:49.077Z,98
2019-03-15T11:27:17.449Z,98
2019-03-15T11:32:45.975Z,98
2019-03-15T11:43:42.283Z,98
2019-03-15T11:49:10.667Z,99
2019-03-15T11:54:39.575Z,99
2019-03-15T12:00:07.839Z,99
2019-03-15T12:05:36.426Z,100
2019-03-15T12:11:03.906Z,100
2019-03-15T12:16:32.460Z,100
2019-03-15T12:22:05.950Z,100
2019-03-15T12:27:27.654Z,100
2019-03-15T12:32:56.972Z,100
2019-03-15T12:38:24.762Z,100
2019-03-15T12:43:53.419Z,100
2019-03-15T12:49:20.986Z,100
2019-03-15T12:54:48.731Z,100
2019-03-15T13:00:16.430Z,100
2019-03-15T13:05:44.936Z,100
2019-03-15T13:11:13.565Z,100
2019-03-15T13:16:41.209Z,100
2019-03-15T13:22:09.840Z,99
2019-03-15T13:27:37.527Z,98
2019-03-15T13:33:19.035Z,97
2019-03-15T13:38:33.885Z,95
2019-03-15T13:44:02.648Z,94
2019-03-15T13:49:30.364Z,91
2019-03-15T13:54:58.991Z,91
2019-03-15T14:00:26.590Z,91
2019-03-15T14:05:55.307Z,91
2019-03-15T14:11:22.937Z,91
2019-03-15T14:16:50.712Z,89
2019-03-15T14:22:19.357Z,88
2019-03-15T14:27:47.405Z,89
2019-03-15T14:33:15.796Z,88
2019-03-15T14:38:44.542Z,87
2019-03-15T14:44:13.174Z,85
2019-03-15T14:49:40.606Z,85
2019-03-15T14:55:09.294Z,86
2019-03-15T15:00:37.946Z,85
2019-03-15T15:06:06.561Z,84
2019-03-15T15:11:34.242Z,82
2019-03-15T15:17:04.638Z,82
2019-03-15T15:22:29.624Z,84
2019-03-15T15:28:05.097Z,83
2019-03-15T15:33:25.860Z,83
2019-03-15T15:38:54.577Z,84
2019-03-15T15:44:22.157Z,82
2019-03-15T15:49:49.891Z,83
2019-03-15T16:00:47.109Z,81
2019-03-15T16:06:15.792Z,82
2019-03-15T16:11:43.597Z,82
2019-03-15T16:17:12.120Z,81
2019-03-15T16:22:40.633Z,81
2019-03-15T16:28:08.238Z,82
2019-03-15T16:33:35.880Z,82
2019-03-15T16:39:04.500Z,83
2019-03-15T16:44:33.094Z,83
2019-03-15T16:50:01.801Z,83
2019-03-15T16:55:29.399Z,83
2019-03-15T17:00:57.902Z,82
2019-03-15T17:06:25.473Z,81
2019-03-15T17:11:54.063Z,82
2019-03-15T17:17:21.709Z,82
2019-03-15T17:22:49.225Z,88
2019-03-15T17:28:17.816Z,88
2019-03-15T17:33:45.347Z,90
2019-03-15T17:39:13.862Z,90
2019-03-15T17:44:42.389Z,90
2019-03-15T17:50:09.869Z,91
2019-03-15T17:55:37.341Z,91
2019-03-15T18:01:04.809Z,90
2019-03-15T18:06:32.501Z,90
2019-03-15T18:12:00.693Z,90
2019-03-15T18:17:28.176Z,90
2019-03-15T18:22:55.663Z,91
2019-03-15T18:28:24.107Z,90
2019-03-15T18:33:52.631Z,89
2019-03-15T18:39:20.281Z,89
2019-03-15T18:44:48.604Z,88
2019-03-15T18:50:16.075Z,87
2019-03-15T18:55:43.614Z,87
2019-03-15T19:01:11.135Z,86
2019-03-15T19:06:39.478Z,87
2019-03-15T19:12:06.947Z,88
2019-03-15T19:17:35.395Z,88
2019-03-15T19:23:02.931Z,89
2019-03-15T19:28:30.426Z,88
2019-03-15T19:33:58.869Z,88
2019-03-15T19:39:27.585Z,87
2019-03-15T19:44:54.818Z,86
2019-03-15T19:50:22.267Z,87
2019-03-15T19:55:49.974Z,88
2019-03-15T20:01:17.256Z,87
2019-03-15T20:06:45.757Z,87
2019-03-15T20:12:13.151Z,86
2019-03-15T20:17:41.697Z,86
2019-03-15T20:23:10.899Z,85
2019-03-15T20:28:37.587Z,86
2019-03-15T20:34:06.084Z,85
2019-03-15T20:39:33.615Z,86
2019-03-15T20:45:01.869Z,87
2019-03-15T20:50:29.461Z,87
2019-03-15T20:55:56.957Z,88
2019-03-15T21:01:25.343Z,86
2019-03-15T21:06:53.831Z,86
2019-03-15T21:12:22.277Z,86
2019-03-15T21:17:50.763Z,85
2019-03-15T21:23:19.215Z,85
2019-03-15T21:28:46.694Z,86
2019-03-15T21:34:15.157Z,87
2019-03-15T21:39:42.644Z,88
2019-03-15T21:45:10.424Z,89
2019-03-15T21:50:38.629Z,89
2019-03-15T22:01:35.518Z,88
2019-03-15T22:07:02.969Z,89
2019-03-15T22:12:31.330Z,90
2019-03-15T22:17:59.709Z,90
2019-03-15T22:23:28.169Z,91
2019-03-15T22:28:56.606Z,91
2019-03-15T22:34:25.037Z,91
2019-03-15T22:39:52.457Z,92
2019-03-15T22:45:19.999Z,92
2019-03-15T22:50:47.796Z,92
2019-03-15T22:56:15.814Z,92
2019-03-15T23:01:43.524Z,92
2019-03-15T23:07:10.783Z,92
2019-03-15T23:12:38.268Z,92
2019-03-15T23:18:06.756Z,92
2019-03-15T23:23:35.182Z,91
2019-03-15T23:29:02.721Z,91
2019-03-15T23:34:30.289Z,91
2019-03-15T23:39:57.643Z,91
2019-03-15T23:45:25.069Z,91
2019-03-15T23:50:52.534Z,91
2019-03-15T23:56:21.006Z,90
